sensor_id;sensor_type;location;lat;lon;timestamp;pressure;altitude;pressure_sealevel;temperature;humidity
42727;BME280;28372;56.832;60.658;2023-06-01T00:00:22;97345.91;;;26.23;29.40
42727;BME280;28372;56.832;60.658;2023-06-01T00:02:50;97352.06;;;26.12;29.40
42727;BME280;28372;56.832;60.658;2023-06-01T00:05:18;97346.03;;;26.14;29.43
42727;BME280;28372;56.832;60.658;2023-06-01T00:07:46;97348.31;;;26.15;29.59
42727;BME280;28372;56.832;60.658;2023-06-01T00:10:14;97344.56;;;26.19;29.61
42727;BME280;28372;56.832;60.658;2023-06-01T00:12:42;97347.34;;;26.19;29.29
42727;BME280;28372;56.832;60.658;2023-06-01T00:15:10;97344.84;;;26.21;29.43
42727;BME280;28372;56.832;60.658;2023-06-01T00:17:38;97334.41;;;26.10;29.79
42727;BME280;28372;56.832;60.658;2023-06-01T00:20:06;97341.25;;;26.14;29.72
42727;BME280;28372;56.832;60.658;2023-06-01T00:22:37;97333.38;;;26.07;29.40
42727;BME280;28372;56.832;60.658;2023-06-01T00:25:08;97335.41;;;26.07;29.73
42727;BME280;28372;56.832;60.658;2023-06-01T00:27:36;97329.22;;;25.97;30.05
42727;BME280;28372;56.832;60.658;2023-06-01T00:30:04;97320.22;;;25.81;29.73
42727;BME280;28372;56.832;60.658;2023-06-01T00:32:33;97326.22;;;26.00;30.04
42727;BME280;28372;56.832;60.658;2023-06-01T00:35:01;97327.47;;;25.99;29.49
42727;BME280;28372;56.832;60.658;2023-06-01T00:37:29;97325.47;;;26.00;30.05
42727;BME280;28372;56.832;60.658;2023-06-01T00:39:57;97332.56;;;26.01;30.07
42727;BME280;28372;56.832;60.658;2023-06-01T00:42:25;97328.56;;;26.02;29.86
42727;BME280;28372;56.832;60.658;2023-06-01T00:44:53;97329.84;;;26.07;29.99
42727;BME280;28372;56.832;60.658;2023-06-01T00:47:21;97323.81;;;26.08;29.77
42727;BME280;28372;56.832;60.658;2023-06-01T00:49:49;97317.78;;;25.89;30.18
42727;BME280;28372;56.832;60.658;2023-06-01T00:52:17;97342.56;;;25.98;30.03
42727;BME280;28372;56.832;60.658;2023-06-01T00:54:45;97335.72;;;25.94;30.34
42727;BME280;28372;56.832;60.658;2023-06-01T00:57:13;97336.47;;;25.94;30.35
42727;BME280;28372;56.832;60.658;2023-06-01T00:59:42;97332.19;;;25.93;30.36
42727;BME280;28372;56.832;60.658;2023-06-01T01:02:09;97328.66;;;25.93;30.53
42727;BME280;28372;56.832;60.658;2023-06-01T01:04:42;97329.31;;;26.03;30.00
42727;BME280;28372;56.832;60.658;2023-06-01T01:07:25;97328.81;;;26.04;30.10
42727;BME280;28372;56.832;60.658;2023-06-01T01:10:06;97332.41;;;25.90;30.84
42727;BME280;28372;56.832;60.658;2023-06-01T01:12:49;97330.75;;;25.98;30.40
42727;BME280;28372;56.832;60.658;2023-06-01T01:15:58;97332.06;;;26.03;30.41
42727;BME280;28372;56.832;60.658;2023-06-01T01:21:03;97326.81;;;25.63;31.18
42727;BME280;28372;56.832;60.658;2023-06-01T01:29:16;97308.31;;;25.34;31.72
42727;BME280;28372;56.832;60.658;2023-06-01T01:31:45;97309.31;;;25.52;31.82
42727;BME280;28372;56.832;60.658;2023-06-01T01:34:18;97314.50;;;25.29;31.97
42727;BME280;28372;56.832;60.658;2023-06-01T01:36:47;97300.38;;;25.06;32.35
42727;BME280;28372;56.832;60.658;2023-06-01T01:39:15;97300.13;;;24.89;32.73
42727;BME280;28372;56.832;60.658;2023-06-01T01:41:43;97299.41;;;24.74;33.01
42727;BME280;28372;56.832;60.658;2023-06-01T01:44:10;97298.94;;;24.75;33.10
42727;BME280;28372;56.832;60.658;2023-06-01T01:49:18;97314.56;;;24.78;32.90
42727;BME280;28372;56.832;60.658;2023-06-01T01:54:45;97314.06;;;24.95;32.96
42727;BME280;28372;56.832;60.658;2023-06-01T01:57:14;97311.97;;;25.25;32.27
42727;BME280;28372;56.832;60.658;2023-06-01T01:59:45;97309.06;;;25.14;32.63
42727;BME280;28372;56.832;60.658;2023-06-01T02:02:13;97300.38;;;25.06;33.13
42727;BME280;28372;56.832;60.658;2023-06-01T02:04:42;97304.47;;;25.11;32.60
42727;BME280;28372;56.832;60.658;2023-06-01T02:07:10;97292.91;;;24.77;33.27
42727;BME280;28372;56.832;60.658;2023-06-01T02:09:39;97306.81;;;24.83;33.52
42727;BME280;28372;56.832;60.658;2023-06-01T02:12:09;97305.31;;;24.82;33.55
42727;BME280;28372;56.832;60.658;2023-06-01T02:14:37;97292.97;;;24.97;33.19
42727;BME280;28372;56.832;60.658;2023-06-01T02:17:07;97303.13;;;24.86;33.60
42727;BME280;28372;56.832;60.658;2023-06-01T02:19:35;97291.66;;;24.93;33.43
42727;BME280;28372;56.832;60.658;2023-06-01T02:22:02;97289.66;;;24.78;33.87
42727;BME280;28372;56.832;60.658;2023-06-01T02:24:30;97283.06;;;24.91;33.58
42727;BME280;28372;56.832;60.658;2023-06-01T02:26:58;97286.38;;;24.95;33.79
42727;BME280;28372;56.832;60.658;2023-06-01T02:29:26;97292.28;;;25.03;33.51
42727;BME280;28372;56.832;60.658;2023-06-01T02:31:56;97288.06;;;25.07;33.41
42727;BME280;28372;56.832;60.658;2023-06-01T02:34:24;97293.63;;;25.28;33.13
42727;BME280;28372;56.832;60.658;2023-06-01T02:36:53;97296.97;;;25.53;32.72
42727;BME280;28372;56.832;60.658;2023-06-01T02:39:25;97296.28;;;25.58;32.64
42727;BME280;28372;56.832;60.658;2023-06-01T02:41:53;97296.84;;;25.82;32.32
42727;BME280;28372;56.832;60.658;2023-06-01T02:44:21;97301.94;;;25.90;32.45
42727;BME280;28372;56.832;60.658;2023-06-01T02:46:48;97298.66;;;26.12;31.58
42727;BME280;28372;56.832;60.658;2023-06-01T02:49:17;97290.13;;;26.15;31.37
42727;BME280;28372;56.832;60.658;2023-06-01T02:51:45;97291.97;;;26.24;31.42
42727;BME280;28372;56.832;60.658;2023-06-01T02:54:18;97293.97;;;26.24;31.72
42727;BME280;28372;56.832;60.658;2023-06-01T02:56:46;97299.09;;;26.31;31.86
42727;BME280;28372;56.832;60.658;2023-06-01T02:59:21;97300.47;;;26.47;31.27
42727;BME280;28372;56.832;60.658;2023-06-01T03:01:57;97297.56;;;26.62;30.91
42727;BME280;28372;56.832;60.658;2023-06-01T03:04:25;97291.41;;;26.78;30.95
42727;BME280;28372;56.832;60.658;2023-06-01T03:06:57;97287.53;;;27.02;30.81
42727;BME280;28372;56.832;60.658;2023-06-01T03:09:26;97283.03;;;27.10;30.19
42727;BME280;28372;56.832;60.658;2023-06-01T03:11:57;97277.28;;;27.19;30.55
42727;BME280;28372;56.832;60.658;2023-06-01T03:14:26;97274.53;;;27.25;30.02
42727;BME280;28372;56.832;60.658;2023-06-01T03:16:54;97274.75;;;27.16;30.47
42727;BME280;28372;56.832;60.658;2023-06-01T03:19:22;97268.38;;;27.10;30.37
42727;BME280;28372;56.832;60.658;2023-06-01T03:21:53;97279.50;;;27.10;30.21
42727;BME280;28372;56.832;60.658;2023-06-01T03:24:23;97282.78;;;27.14;30.10
42727;BME280;28372;56.832;60.658;2023-06-01T03:26:55;97288.38;;;27.19;29.82
42727;BME280;28372;56.832;60.658;2023-06-01T03:29:24;97282.97;;;26.99;30.32
42727;BME280;28372;56.832;60.658;2023-06-01T03:31:52;97285.03;;;27.10;30.26
42727;BME280;28372;56.832;60.658;2023-06-01T03:34:22;97280.78;;;27.14;30.10
42727;BME280;28372;56.832;60.658;2023-06-01T03:36:50;97288.84;;;27.12;29.99
42727;BME280;28372;56.832;60.658;2023-06-01T03:39:17;97295.22;;;27.24;30.02
42727;BME280;28372;56.832;60.658;2023-06-01T03:41:46;97301.25;;;27.23;30.07
42727;BME280;28372;56.832;60.658;2023-06-01T03:44:15;97312.84;;;27.21;29.97
42727;BME280;28372;56.832;60.658;2023-06-01T03:46:44;97292.91;;;27.17;29.93
42727;BME280;28372;56.832;60.658;2023-06-01T03:49:13;97304.59;;;27.32;30.00
42727;BME280;28372;56.832;60.658;2023-06-01T03:51:40;97310.91;;;27.33;30.03
42727;BME280;28372;56.832;60.658;2023-06-01T03:54:09;97310.41;;;27.34;30.25
42727;BME280;28372;56.832;60.658;2023-06-01T03:56:37;97302.56;;;27.27;30.17
42727;BME280;28372;56.832;60.658;2023-06-01T03:59:05;97306.13;;;26.90;30.98
42727;BME280;28372;56.832;60.658;2023-06-01T04:01:40;97315.50;;;26.66;31.71
42727;BME280;28372;56.832;60.658;2023-06-01T04:04:11;97306.38;;;26.60;32.05
42727;BME280;28372;56.832;60.658;2023-06-01T04:06:40;97313.47;;;26.61;32.14
42727;BME280;28372;56.832;60.658;2023-06-01T04:09:14;97303.84;;;26.89;31.78
42727;BME280;28372;56.832;60.658;2023-06-01T04:11:43;97316.34;;;27.10;31.24
42727;BME280;28372;56.832;60.658;2023-06-01T04:14:12;97312.53;;;27.08;31.61
42727;BME280;28372;56.832;60.658;2023-06-01T04:16:41;97313.31;;;27.14;31.31
42727;BME280;28372;56.832;60.658;2023-06-01T04:19:09;97299.47;;;27.19;31.44
42727;BME280;28372;56.832;60.658;2023-06-01T04:21:38;97298.75;;;27.25;31.55
42727;BME280;28372;56.832;60.658;2023-06-01T04:24:05;97299.31;;;27.34;31.33
42727;BME280;28372;56.832;60.658;2023-06-01T04:26:33;97304.81;;;27.23;31.91
42727;BME280;28372;56.832;60.658;2023-06-01T04:29:03;97304.34;;;27.30;31.90
42727;BME280;28372;56.832;60.658;2023-06-01T04:31:31;97311.19;;;27.35;32.05
42727;BME280;28372;56.832;60.658;2023-06-01T04:34:00;97307.47;;;27.44;31.98
42727;BME280;28372;56.832;60.658;2023-06-01T04:36:29;97305.25;;;27.59;31.74
42727;BME280;28372;56.832;60.658;2023-06-01T04:39:01;97303.28;;;27.77;31.13
42727;BME280;28372;56.832;60.658;2023-06-01T04:41:31;97302.56;;;27.88;31.48
42727;BME280;28372;56.832;60.658;2023-06-01T04:43:59;97304.59;;;27.93;31.07
42727;BME280;28372;56.832;60.658;2023-06-01T04:46:28;97309.44;;;28.03;30.85
42727;BME280;28372;56.832;60.658;2023-06-01T04:48:59;97292.72;;;27.98;30.97
42727;BME280;28372;56.832;60.658;2023-06-01T04:51:29;97307.69;;;28.12;31.10
42727;BME280;28372;56.832;60.658;2023-06-01T04:53:59;97306.69;;;28.09;30.92
42727;BME280;28372;56.832;60.658;2023-06-01T04:56:27;97308.69;;;28.03;31.37
42727;BME280;28372;56.832;60.658;2023-06-01T04:58:56;97302.31;;;27.91;31.26
42727;BME280;28372;56.832;60.658;2023-06-01T05:01:27;97305.38;;;27.93;31.04
42727;BME280;28372;56.832;60.658;2023-06-01T05:03:57;97306.16;;;27.99;31.08
42727;BME280;28372;56.832;60.658;2023-06-01T05:06:26;97300.09;;;28.12;31.13
42727;BME280;28372;56.832;60.658;2023-06-01T05:08:55;97312.25;;;28.15;31.24
42727;BME280;28372;56.832;60.658;2023-06-01T05:11:23;97305.94;;;28.31;31.28
42727;BME280;28372;56.832;60.658;2023-06-01T05:13:52;97304.69;;;28.61;31.37
42727;BME280;28372;56.832;60.658;2023-06-01T05:16:21;97302.88;;;29.14;30.77
42727;BME280;28372;56.832;60.658;2023-06-01T05:18:51;97304.00;;;30.12;30.03
42727;BME280;28372;56.832;60.658;2023-06-01T05:21:19;97306.16;;;30.66;28.55
42727;BME280;28372;56.832;60.658;2023-06-01T05:23:47;97301.31;;;30.72;28.22
42727;BME280;28372;56.832;60.658;2023-06-01T05:26:15;97291.50;;;30.90;28.36
42727;BME280;28372;56.832;60.658;2023-06-01T05:28:43;97300.81;;;30.99;28.03
42727;BME280;28372;56.832;60.658;2023-06-01T05:31:12;97308.06;;;31.57;27.01
42727;BME280;28372;56.832;60.658;2023-06-01T05:33:47;97284.28;;;32.07;26.59
42727;BME280;28372;56.832;60.658;2023-06-01T05:36:16;97276.31;;;32.11;26.20
42727;BME280;28372;56.832;60.658;2023-06-01T05:38:43;97273.09;;;31.88;26.08
42727;BME280;28372;56.832;60.658;2023-06-01T05:41:12;97293.47;;;31.45;26.76
42727;BME280;28372;56.832;60.658;2023-06-01T05:43:40;97283.78;;;31.27;26.86
42727;BME280;28372;56.832;60.658;2023-06-01T05:46:08;97279.81;;;31.17;27.13
42727;BME280;28372;56.832;60.658;2023-06-01T05:48:37;97273.34;;;31.03;26.89
42727;BME280;28372;56.832;60.658;2023-06-01T05:51:09;97263.19;;;31.05;26.96
42727;BME280;28372;56.832;60.658;2023-06-01T05:53:36;97262.50;;;31.18;26.56
42727;BME280;28372;56.832;60.658;2023-06-01T05:56:05;97268.16;;;31.37;26.25
42727;BME280;28372;56.832;60.658;2023-06-01T05:58:34;97255.03;;;31.51;26.08
42727;BME280;28372;56.832;60.658;2023-06-01T06:01:01;97260.50;;;31.63;25.78
42727;BME280;28372;56.832;60.658;2023-06-01T06:03:30;97253.31;;;31.67;25.83
42727;BME280;28372;56.832;60.658;2023-06-01T06:05:57;97256.72;;;31.79;25.86
42727;BME280;28372;56.832;60.658;2023-06-01T06:08:26;97249.34;;;31.95;25.47
42727;BME280;28372;56.832;60.658;2023-06-01T06:10:54;97252.16;;;31.95;25.80
42727;BME280;28372;56.832;60.658;2023-06-01T06:13:22;97270.38;;;31.83;25.79
42727;BME280;28372;56.832;60.658;2023-06-01T06:15:50;97242.91;;;31.68;25.78
42727;BME280;28372;56.832;60.658;2023-06-01T06:18:17;97244.59;;;31.90;26.07
42727;BME280;28372;56.832;60.658;2023-06-01T06:20:47;97245.19;;;32.21;25.68
42727;BME280;28372;56.832;60.658;2023-06-01T06:23:14;97242.75;;;32.44;24.64
42727;BME280;28372;56.832;60.658;2023-06-01T06:25:43;97245.97;;;32.35;24.69
42727;BME280;28372;56.832;60.658;2023-06-01T06:28:12;97225.28;;;32.24;24.76
42727;BME280;28372;56.832;60.658;2023-06-01T06:30:40;97242.97;;;32.33;24.97
42727;BME280;28372;56.832;60.658;2023-06-01T06:33:08;97215.72;;;32.33;24.61
42727;BME280;28372;56.832;60.658;2023-06-01T06:35:40;97219.28;;;32.47;24.77
42727;BME280;28372;56.832;60.658;2023-06-01T06:38:11;97230.97;;;32.65;24.63
42727;BME280;28372;56.832;60.658;2023-06-01T06:40:39;97225.28;;;32.84;24.27
42727;BME280;28372;56.832;60.658;2023-06-01T06:43:06;97206.75;;;32.81;23.92
42727;BME280;28372;56.832;60.658;2023-06-01T06:45:34;97212.03;;;32.71;24.23
42727;BME280;28372;56.832;60.658;2023-06-01T06:48:02;97204.06;;;32.61;24.37
42727;BME280;28372;56.832;60.658;2023-06-01T06:50:30;97233.63;;;32.57;24.27
42727;BME280;28372;56.832;60.658;2023-06-01T06:52:58;97213.25;;;32.30;24.51
42727;BME280;28372;56.832;60.658;2023-06-01T06:55:27;97219.41;;;31.90;25.32
42727;BME280;28372;56.832;60.658;2023-06-01T06:57:54;97221.88;;;31.80;25.27
42727;BME280;28372;56.832;60.658;2023-06-01T07:00:22;97223.44;;;31.94;25.42
42727;BME280;28372;56.832;60.658;2023-06-01T07:02:50;97238.00;;;32.06;25.28
42727;BME280;28372;56.832;60.658;2023-06-01T07:05:18;97243.78;;;32.27;25.04
42727;BME280;28372;56.832;60.658;2023-06-01T07:07:46;97237.81;;;32.37;24.89
42727;BME280;28372;56.832;60.658;2023-06-01T07:10:14;97229.00;;;32.46;24.16
42727;BME280;28372;56.832;60.658;2023-06-01T07:12:41;97230.50;;;32.47;23.89
42727;BME280;28372;56.832;60.658;2023-06-01T07:15:09;97222.63;;;32.45;23.72
42727;BME280;28372;56.832;60.658;2023-06-01T07:17:37;97222.47;;;32.24;24.17
42727;BME280;28372;56.832;60.658;2023-06-01T07:20:07;97224.88;;;32.34;24.28
42727;BME280;28372;56.832;60.658;2023-06-01T07:22:38;97221.25;;;32.66;24.40
42727;BME280;28372;56.832;60.658;2023-06-01T07:25:06;97214.34;;;32.40;24.06
42727;BME280;28372;56.832;60.658;2023-06-01T07:27:34;97210.78;;;32.39;23.83
42727;BME280;28372;56.832;60.658;2023-06-01T07:30:04;97219.75;;;32.51;23.77
42727;BME280;28372;56.832;60.658;2023-06-01T07:32:32;97217.81;;;32.46;24.05
42727;BME280;28372;56.832;60.658;2023-06-01T07:35:00;97207.75;;;32.37;23.56
42727;BME280;28372;56.832;60.658;2023-06-01T07:37:30;97208.44;;;32.57;23.51
42727;BME280;28372;56.832;60.658;2023-06-01T07:39:59;97210.22;;;32.27;24.15
42727;BME280;28372;56.832;60.658;2023-06-01T07:42:28;97192.78;;;32.21;23.88
42727;BME280;28372;56.832;60.658;2023-06-01T07:44:55;97206.31;;;32.17;24.08
42727;BME280;28372;56.832;60.658;2023-06-01T07:47:23;97198.53;;;32.10;24.46
42727;BME280;28372;56.832;60.658;2023-06-01T07:49:52;97182.44;;;32.16;23.89
42727;BME280;28372;56.832;60.658;2023-06-01T07:52:20;97178.72;;;32.08;23.94
42727;BME280;28372;56.832;60.658;2023-06-01T07:54:48;97186.81;;;32.11;24.10
42727;BME280;28372;56.832;60.658;2023-06-01T07:57:17;97186.56;;;31.96;24.02
42727;BME280;28372;56.832;60.658;2023-06-01T07:59:44;97183.84;;;31.90;24.03
42727;BME280;28372;56.832;60.658;2023-06-01T08:02:12;97188.59;;;31.96;23.92
42727;BME280;28372;56.832;60.658;2023-06-01T08:04:41;97194.94;;;31.96;23.72
42727;BME280;28372;56.832;60.658;2023-06-01T08:07:08;97186.75;;;31.98;23.71
42727;BME280;28372;56.832;60.658;2023-06-01T08:09:36;97187.97;;;32.03;23.54
42727;BME280;28372;56.832;60.658;2023-06-01T08:12:07;97183.16;;;31.84;23.80
42727;BME280;28372;56.832;60.658;2023-06-01T08:14:35;97184.50;;;31.97;23.84
42727;BME280;28372;56.832;60.658;2023-06-01T08:17:03;97183.22;;;31.98;23.99
42727;BME280;28372;56.832;60.658;2023-06-01T08:19:31;97174.97;;;32.05;24.08
42727;BME280;28372;56.832;60.658;2023-06-01T08:21:59;97176.38;;;32.12;23.82
42727;BME280;28372;56.832;60.658;2023-06-01T08:24:27;97175.25;;;32.21;23.74
42727;BME280;28372;56.832;60.658;2023-06-01T08:26:55;97169.31;;;32.24;23.53
42727;BME280;28372;56.832;60.658;2023-06-01T08:29:26;97183.66;;;32.34;23.17
42727;BME280;28372;56.832;60.658;2023-06-01T08:32:09;97177.66;;;32.43;22.86
42727;BME280;28372;56.832;60.658;2023-06-01T08:34:37;97184.75;;;32.44;22.91
42727;BME280;28372;56.832;60.658;2023-06-01T08:37:05;97183.88;;;32.50;22.58
42727;BME280;28372;56.832;60.658;2023-06-01T08:39:32;97186.91;;;32.52;22.55
42727;BME280;28372;56.832;60.658;2023-06-01T08:42:30;97193.72;;;32.70;22.97
42727;BME280;28372;56.832;60.658;2023-06-01T08:45:04;97198.00;;;32.57;22.22
42727;BME280;28372;56.832;60.658;2023-06-01T08:47:35;97206.19;;;32.55;22.61
42727;BME280;28372;56.832;60.658;2023-06-01T08:50:04;97208.09;;;32.47;22.34
42727;BME280;28372;56.832;60.658;2023-06-01T08:52:34;97218.00;;;32.48;22.38
42727;BME280;28372;56.832;60.658;2023-06-01T08:55:03;97212.63;;;32.37;22.14
42727;BME280;28372;56.832;60.658;2023-06-01T08:57:31;97205.31;;;32.47;21.81
42727;BME280;28372;56.832;60.658;2023-06-01T08:59:59;97214.56;;;32.42;21.70
42727;BME280;28372;56.832;60.658;2023-06-01T09:02:31;97213.47;;;32.32;21.88
42727;BME280;28372;56.832;60.658;2023-06-01T09:04:59;97217.13;;;32.26;22.58
42727;BME280;28372;56.832;60.658;2023-06-01T09:07:30;97222.03;;;32.20;22.63
42727;BME280;28372;56.832;60.658;2023-06-01T09:10:01;97201.88;;;32.41;22.62
42727;BME280;28372;56.832;60.658;2023-06-01T09:12:31;97227.69;;;32.34;22.10
42727;BME280;28372;56.832;60.658;2023-06-01T09:15:14;97249.66;;;32.43;22.77
42727;BME280;28372;56.832;60.658;2023-06-01T09:17:48;97265.66;;;32.10;22.96
42727;BME280;28372;56.832;60.658;2023-06-01T09:20:28;97256.16;;;32.19;23.19
42727;BME280;28372;56.832;60.658;2023-06-01T09:22:56;97256.22;;;31.94;23.33
42727;BME280;28372;56.832;60.658;2023-06-01T09:25:28;97263.88;;;31.93;23.54
42727;BME280;28372;56.832;60.658;2023-06-01T09:27:57;97258.91;;;31.86;24.08
42727;BME280;28372;56.832;60.658;2023-06-01T09:30:38;97267.66;;;31.96;23.68
42727;BME280;28372;56.832;60.658;2023-06-01T09:33:10;97278.09;;;31.76;23.73
42727;BME280;28372;56.832;60.658;2023-06-01T09:38:09;97250.06;;;31.82;23.61
42727;BME280;28372;56.832;60.658;2023-06-01T09:40:38;97254.13;;;31.81;23.76
42727;BME280;28372;56.832;60.658;2023-06-01T09:43:20;97241.78;;;31.90;23.58
42727;BME280;28372;56.832;60.658;2023-06-01T09:46:10;97231.84;;;31.75;23.90
42727;BME280;28372;56.832;60.658;2023-06-01T09:48:41;97247.16;;;31.50;23.94
42727;BME280;28372;56.832;60.658;2023-06-01T09:51:22;97242.34;;;31.88;23.85
42727;BME280;28372;56.832;60.658;2023-06-01T09:53:52;97258.81;;;31.10;24.48
42727;BME280;28372;56.832;60.658;2023-06-01T09:56:20;97229.53;;;30.67;24.96
42727;BME280;28372;56.832;60.658;2023-06-01T09:58:56;97226.75;;;30.92;24.68
42727;BME280;28372;56.832;60.658;2023-06-01T10:01:27;97208.94;;;30.95;24.39
42727;BME280;28372;56.832;60.658;2023-06-01T10:03:56;97208.09;;;31.06;24.36
42727;BME280;28372;56.832;60.658;2023-06-01T10:06:25;97189.94;;;30.93;24.47
42727;BME280;28372;56.832;60.658;2023-06-01T10:08:53;97206.31;;;30.53;25.42
42727;BME280;28372;56.832;60.658;2023-06-01T10:11:22;97204.00;;;30.57;25.42
42727;BME280;28372;56.832;60.658;2023-06-01T10:13:50;97192.19;;;30.15;25.30
42727;BME280;28372;56.832;60.658;2023-06-01T10:16:18;97185.41;;;29.69;26.35
42727;BME280;28372;56.832;60.658;2023-06-01T10:18:47;97196.13;;;30.01;26.40
42727;BME280;28372;56.832;60.658;2023-06-01T10:21:17;97185.75;;;29.96;26.22
42727;BME280;28372;56.832;60.658;2023-06-01T10:23:46;97171.81;;;30.26;26.28
42727;BME280;28372;56.832;60.658;2023-06-01T10:26:15;97182.41;;;30.64;25.34
42727;BME280;28372;56.832;60.658;2023-06-01T10:28:45;97176.69;;;30.50;26.03
42727;BME280;28372;56.832;60.658;2023-06-01T10:31:33;97176.56;;;30.62;25.66
42727;BME280;28372;56.832;60.658;2023-06-01T10:34:01;97171.03;;;30.01;25.13
42727;BME280;28372;56.832;60.658;2023-06-01T10:39:24;97164.00;;;30.74;24.49
42727;BME280;28372;56.832;60.658;2023-06-01T10:41:56;97170.03;;;30.29;24.41
42727;BME280;28372;56.832;60.658;2023-06-01T10:52:43;97159.63;;;30.29;24.78
42727;BME280;28372;56.832;60.658;2023-06-01T10:57:45;97158.97;;;29.81;25.58
42727;BME280;28372;56.832;60.658;2023-06-01T11:00:25;97133.84;;;29.93;25.74
42727;BME280;28372;56.832;60.658;2023-06-01T11:13:29;97138.34;;;30.26;25.16
42727;BME280;28372;56.832;60.658;2023-06-01T11:21:32;97120.81;;;30.56;24.56
42727;BME280;28372;56.832;60.658;2023-06-01T11:26:44;97108.41;;;30.27;24.45
42727;BME280;28372;56.832;60.658;2023-06-01T11:29:18;97103.72;;;30.40;24.21
42727;BME280;28372;56.832;60.658;2023-06-01T11:31:48;97114.03;;;30.51;24.32
42727;BME280;28372;56.832;60.658;2023-06-01T11:34:18;97092.03;;;30.67;24.39
42727;BME280;28372;56.832;60.658;2023-06-01T11:36:50;97101.19;;;30.86;23.60
42727;BME280;28372;56.832;60.658;2023-06-01T11:39:23;97100.72;;;30.82;23.79
42727;BME280;28372;56.832;60.658;2023-06-01T11:42:02;97102.53;;;30.80;23.90
42727;BME280;28372;56.832;60.658;2023-06-01T11:44:38;97095.59;;;30.86;24.00
42727;BME280;28372;56.832;60.658;2023-06-01T11:47:08;97090.84;;;31.00;23.08
42727;BME280;28372;56.832;60.658;2023-06-01T11:49:54;97096.53;;;31.14;23.77
42727;BME280;28372;56.832;60.658;2023-06-01T11:52:22;97074.38;;;30.97;23.49
42727;BME280;28372;56.832;60.658;2023-06-01T11:54:49;97073.66;;;30.96;23.63
42727;BME280;28372;56.832;60.658;2023-06-01T11:57:20;97080.50;;;30.95;23.53
42727;BME280;28372;56.832;60.658;2023-06-01T11:59:49;97082.03;;;30.96;23.74
42727;BME280;28372;56.832;60.658;2023-06-01T12:02:27;97093.06;;;31.07;23.60
42727;BME280;28372;56.832;60.658;2023-06-01T12:05:05;97083.63;;;31.11;23.49
42727;BME280;28372;56.832;60.658;2023-06-01T12:07:48;97095.69;;;31.19;23.50
42727;BME280;28372;56.832;60.658;2023-06-01T12:10:17;97089.81;;;31.03;23.50
42727;BME280;28372;56.832;60.658;2023-06-01T12:12:47;97075.22;;;30.91;23.47
42727;BME280;28372;56.832;60.658;2023-06-01T12:15:16;97092.72;;;30.92;23.25
42727;BME280;28372;56.832;60.658;2023-06-01T12:17:51;97080.66;;;31.03;23.37
42727;BME280;28372;56.832;60.658;2023-06-01T12:20:42;97087.69;;;31.09;23.52
42727;BME280;28372;56.832;60.658;2023-06-01T12:28:22;97087.59;;;30.96;23.87
42727;BME280;28372;56.832;60.658;2023-06-01T12:31:07;97097.22;;;31.20;23.61
42727;BME280;28372;56.832;60.658;2023-06-01T12:33:36;97095.63;;;31.05;23.68
42727;BME280;28372;56.832;60.658;2023-06-01T12:36:05;97089.22;;;31.11;23.91
42727;BME280;28372;56.832;60.658;2023-06-01T12:38:49;97073.75;;;31.42;23.59
42727;BME280;28372;56.832;60.658;2023-06-01T12:41:18;97090.47;;;31.29;23.48
42727;BME280;28372;56.832;60.658;2023-06-01T12:43:47;97095.38;;;31.22;23.76
42727;BME280;28372;56.832;60.658;2023-06-01T12:46:29;97103.31;;;31.37;23.83
42727;BME280;28372;56.832;60.658;2023-06-01T12:49:16;97097.72;;;31.37;23.65
42727;BME280;28372;56.832;60.658;2023-06-01T12:51:48;97082.19;;;31.23;23.87
42727;BME280;28372;56.832;60.658;2023-06-01T12:54:15;97084.56;;;31.32;23.60
42727;BME280;28372;56.832;60.658;2023-06-01T12:56:47;97101.13;;;31.30;23.92
42727;BME280;28372;56.832;60.658;2023-06-01T12:59:16;97085.56;;;31.35;23.99
42727;BME280;28372;56.832;60.658;2023-06-01T13:01:44;97068.78;;;31.35;23.73
42727;BME280;28372;56.832;60.658;2023-06-01T13:04:12;97082.75;;;31.35;23.55
42727;BME280;28372;56.832;60.658;2023-06-01T13:06:41;97076.81;;;31.25;23.63
42727;BME280;28372;56.832;60.658;2023-06-01T13:09:09;97074.47;;;31.29;23.72
42727;BME280;28372;56.832;60.658;2023-06-01T13:11:38;97070.78;;;31.21;23.92
42727;BME280;28372;56.832;60.658;2023-06-01T13:14:06;97072.00;;;31.06;23.94
42727;BME280;28372;56.832;60.658;2023-06-01T13:16:34;97073.09;;;31.17;23.91
42727;BME280;28372;56.832;60.658;2023-06-01T13:19:02;97075.69;;;31.15;24.09
42727;BME280;28372;56.832;60.658;2023-06-01T13:21:31;97084.34;;;31.30;24.13
42727;BME280;28372;56.832;60.658;2023-06-01T13:24:00;97082.31;;;31.31;24.01
42727;BME280;28372;56.832;60.658;2023-06-01T13:26:29;97075.75;;;31.28;24.42
42727;BME280;28372;56.832;60.658;2023-06-01T13:28:57;97074.19;;;31.46;23.93
42727;BME280;28372;56.832;60.658;2023-06-01T13:31:25;97072.34;;;31.35;23.70
42727;BME280;28372;56.832;60.658;2023-06-01T13:33:53;97084.66;;;31.26;23.91
42727;BME280;28372;56.832;60.658;2023-06-01T13:36:21;97099.84;;;31.31;23.41
42727;BME280;28372;56.832;60.658;2023-06-01T13:38:48;97105.72;;;31.27;23.27
42727;BME280;28372;56.832;60.658;2023-06-01T13:41:16;97104.38;;;31.34;23.46
42727;BME280;28372;56.832;60.658;2023-06-01T13:43:44;97098.09;;;31.28;23.21
42727;BME280;28372;56.832;60.658;2023-06-01T13:46:12;97112.91;;;31.23;23.72
42727;BME280;28372;56.832;60.658;2023-06-01T13:48:40;97111.59;;;31.24;23.26
42727;BME280;28372;56.832;60.658;2023-06-01T13:51:08;97112.13;;;31.22;23.44
42727;BME280;28372;56.832;60.658;2023-06-01T13:53:37;97122.66;;;31.16;23.48
42727;BME280;28372;56.832;60.658;2023-06-01T13:56:05;97104.69;;;31.12;23.46
42727;BME280;28372;56.832;60.658;2023-06-01T13:58:32;97112.63;;;31.07;23.87